Espace membre
Imprimable
La Gileppe, 09-11/08/2019, BEL - La Gileppe Trophy Orbea
Liste des rapports > Triathlon découverte - Classement
Recherche: Page: [1]
31 Entrées
 
Les réclamations ne sont plus acceptées, les résultats sont considérés comme définitifs.
RangNrNomAgeIOCEquipeRéelTempsTkmMoy.Scr
1.5099THYS Arnaud18BELTRIATHLON ARDENNES1:08:0522:41:34 0.044
2.5082EUSSEN Samuel20BELTDCH1:08:0722:42:01 0.045
3.5060PIERRARD Rémy19BELPMX1:08:1122:43:31 0.047
4.5001SCHOONVLIET Stein18BEL3PT1:09:5323:17:33 0.0410
5.5507DEFRAITEUR Romain22BEL1:10:1623:25:02 0.0411
6.5116HAVARD Thomas19BELTTF1:12:0924:02:57 0.0414
7.5196DELVAUX Guillaume23BEL1:12:4324:14:18 0.0416
8.5127LAURENT Hugo18BELWATT'S1:15:1825:05:53 0.0424
9.5329ROYEN Julie21BEL1:16:3725:32:20 0.0432
10.5262LECOQ Florent19BEL1:17:4325:54:05 0.0437
11.5124DEPOERS Baptiste21FRAVALENCIENNES TRIATHLON1:18:1326:04:10 0.0442
12.5193DELITTE Maxence21BEL1:20:4826:55:54 0.0452
13.5204DEWEZ Erwan23BEL1:21:4927:16:17 0.0460
14.5125DEPOERS Eloi18FRAVALENCIENNES TRIATHLON1:22:3427:31:14 0.0473
15.5098MICHAUX Nathan21BELTRIATHLON ARDENNES1:25:1428:24:26 0.0489
16.5326RORIVE Nicolas23BEL1:26:1628:45:12 0.0399
17.5021DE POURCQ Kevin22BELETZA1:26:5928:59:40 0.03107
18.5144BECKER Julien21BEL1:30:1330:04:07 0.03137
19.5330RUWET Nicolas21BEL1:30:3830:12:39 0.03142
20.5102LEJEUNE François20BELTRIATHLON TEAM DES FAGNES1:32:1330:44:14 0.03158
21.5110ADAM Guillaume22BELTRILGE1:35:3831:52:31 0.03198
22.5285MASSART Romain22BEL1:36:3132:10:16 0.03208
23.5519MASSON Briene20BEL1:39:0533:01:40 0.03227
24.5147BERGENHUIZEN Thibault18BEL1:42:0734:02:12 0.03253
25.5241HAVELANGE Martin21BEL1:42:2934:09:28 0.03257
26.5020YUMUSAK Alexandre23BELETC1:42:4734:15:26 0.03260
27.5331RYCKAERT Charles23BEL1:45:4135:13:27 0.03290
28.5028CLAISE Julien21BELGROSRACHITYCH1:50:3636:51:45 0.03338
29.5260LAMY Sébastien20BEL2:01:3140:30:17 0.02375
30.5135ANTOINE Deckers20BEL2:01:3740:32:15 0.02376
DNF5180DANTINE Alaric22BEL
DNF: abandon; DSQ: disqualifié; Vitesse en km/h
Page: [1]